Time;durP1;ratioP1;P1;durP2;ratioP2;P2;SDS_P1;SDS_P2;PMS_P1;PMS_P2;Temp;Humidity;BMP_temperature;BMP_pressure;BME280_temperature;BME280_humidity;BME280_pressure;Samples;Min_cycle;Max_cycle;Signal;HPM_P1;HPM_P2
2022/06/10 00:02:57;;;;;;;0.10;0.10;;;;;;;11.59;100.00;101954.44;10353556;28;20019;-75
2022/06/10 00:07:58;;;;;;;0.10;0.10;;;;;;;11.51;100.00;101949.78;10347424;28;20473;-75
2022/06/10 00:12:58;;;;;;;0.10;0.10;;;;;;;11.37;100.00;101958.19;10342581;28;20037;-75
2022/06/10 00:18:00;;;;;;;0.10;0.10;;;;;;;11.24;100.00;101956.59;10342522;28;20082;-75
2022/06/10 00:23:00;;;;;;;0.08;0.08;;;;;;;11.13;100.00;101951.38;10345267;28;20480;-75
2022/06/10 00:28:00;;;;;;;0.00;0.00;;;;;;;11.03;100.00;101954.03;10368970;28;20023;-75
2022/06/10 00:33:02;;;;;;;0.10;0.10;;;;;;;10.95;100.00;101959.16;10346095;28;20037;-75
2022/06/10 00:38:04;;;;;;;0.10;0.10;;;;;;;10.85;100.00;101960.97;10356899;28;20026;-75
2022/06/10 00:43:04;;;;;;;0.10;0.10;;;;;;;10.80;100.00;101953.34;10337903;28;20068;-75
2022/06/10 00:48:05;;;;;;;0.03;0.03;;;;;;;10.70;100.00;101947.13;10352090;28;20065;-75
2022/06/10 00:53:09;;;;;;;0.10;0.10;;;;;;;10.61;100.00;101955.91;10350107;28;20030;-75
2022/06/10 00:58:19;;;;;;;0.10;0.10;;;;;;;10.54;100.00;101958.25;10360419;28;20222;-75
2022/06/10 01:03:19;;;;;;;0.10;0.10;;;;;;;10.47;100.00;101964.25;10358242;28;20164;-75
2022/06/10 01:08:21;;;;;;;0.07;0.07;;;;;;;10.43;100.00;101972.50;10346529;28;20054;-75
2022/06/10 01:13:40;;;;;;;0.10;0.10;;;;;;;10.39;100.00;101975.56;10346811;28;20752;-75
2022/06/10 01:18:53;;;;;;;0.05;0.05;;;;;;;10.34;100.00;101977.75;10344564;28;20056;-76
2022/06/10 01:24:30;;;;;;;0.10;0.10;;;;;;;10.25;100.00;101979.34;10340918;28;20022;-75
2022/06/10 01:30:15;;;;;;;0.00;0.00;;;;;;;10.16;100.00;101974.81;10370917;28;20029;-75
2022/06/10 01:35:30;;;;;;;0.10;0.10;;;;;;;10.14;100.00;101974.06;10280073;28;20170;-75
2022/06/10 01:40:41;;;;;;;0.10;0.10;;;;;;;10.10;100.00;101973.50;10346174;28;20152;-75
2022/06/10 01:45:52;;;;;;;0.10;0.10;;;;;;;10.07;100.00;101965.75;10353151;28;20033;-75
2022/06/10 01:51:06;;;;;;;0.05;0.05;;;;;;;10.05;100.00;101980.16;10351184;28;20040;-75
2022/06/10 01:56:22;;;;;;;0.00;0.00;;;;;;;10.00;100.00;101977.88;10352661;28;20333;-75
2022/06/10 02:01:28;;;;;;;0.00;0.00;;;;;;;10.02;100.00;101981.25;10355290;28;20153;-75
2022/06/10 02:07:01;;;;;;;0.08;0.08;;;;;;;10.00;100.00;101974.38;10349579;28;20046;-76
2022/06/10 02:12:10;;;;;;;0.00;0.00;;;;;;;9.95;100.00;101978.28;10342132;28;20060;-75
2022/06/10 02:17:13;;;;;;;0.00;0.00;;;;;;;9.89;100.00;101978.78;10347117;28;20388;-75
2022/06/10 02:22:22;;;;;;;0.00;0.00;;;;;;;9.84;100.00;101978.31;10357208;28;20448;-75
2022/06/10 02:27:38;;;;;;;0.08;0.08;;;;;;;9.79;100.00;101984.97;10360883;28;20349;-75
2022/06/10 02:32:40;;;;;;;0.00;0.00;;;;;;;9.76;100.00;101991.41;10351699;28;20071;-73
2022/06/10 02:37:52;;;;;;;0.00;0.00;;;;;;;9.74;100.00;101995.97;10345121;28;20088;-74
2022/06/10 02:48:39;;;;;;;0.10;0.10;;;;;;;9.74;100.00;101993.31;10321286;28;20054;-70
2022/06/10 02:53:40;;;;;;;0.10;0.10;;;;;;;9.72;100.00;102000.59;10301636;28;20061;-72
2022/06/10 03:04:08;;;;;;;0.00;0.00;;;;;;;9.82;100.00;101990.06;10312026;28;20018;-71
2022/06/10 03:09:17;;;;;;;0.10;0.10;;;;;;;9.91;100.00;101998.09;10306341;28;20040;-71
2022/06/10 03:14:44;;;;;;;0.00;0.00;;;;;;;10.28;100.00;101997.75;10316517;28;20029;-71
2022/06/10 03:20:06;;;;;;;0.00;0.00;;;;;;;10.85;100.00;101999.13;10312786;28;20105;-70
2022/06/10 03:25:27;;;;;;;0.00;0.00;;;;;;;11.60;100.00;102002.31;10318516;28;20096;-71
2022/06/10 03:30:33;;;;;;;0.00;0.00;;;;;;;12.40;100.00;102003.13;10311129;28;20065;-70
2022/06/10 03:35:54;;;;;;;0.10;0.10;;;;;;;13.39;100.00;102008.91;10307715;28;20023;-71
2022/06/10 03:40:57;;;;;;;0.10;0.10;;;;;;;14.40;100.00;102012.25;10318614;28;20023;-71
2022/06/10 03:46:04;;;;;;;0.10;0.10;;;;;;;15.45;100.00;102013.06;10307611;28;20394;-72
2022/06/10 03:51:07;;;;;;;0.10;0.10;;;;;;;16.40;100.00;102021.63;10303460;28;20393;-71
2022/06/10 03:56:22;;;;;;;0.10;0.10;;;;;;;17.42;100.00;102019.25;10301850;28;20052;-71
2022/06/10 04:01:22;;;;;;;0.10;0.10;;;;;;;18.40;100.00;102020.50;10313915;28;20030;-71
2022/06/10 04:06:23;;;;;;;0.00;0.00;;;;;;;19.26;100.00;102029.94;10309502;28;20029;-72
2022/06/10 04:11:23;;;;;;;0.03;0.03;;;;;;;20.03;100.00;102031.28;10325801;28;20312;-71
2022/06/10 04:16:23;;;;;;;0.10;0.10;;;;;;;20.66;95.64;102045.00;10302426;28;20276;-72
2022/06/10 04:21:24;;;;;;;0.00;0.00;;;;;;;21.38;91.91;102051.94;10309341;28;20014;-72
2022/06/10 04:26:24;;;;;;;0.00;0.00;;;;;;;21.95;86.92;102049.88;10302848;28;20031;-72
2022/06/10 04:31:25;;;;;;;0.00;0.00;;;;;;;22.58;85.16;102053.09;10319198;28;20026;-72
2022/06/10 04:36:25;;;;;;;0.00;0.00;;;;;;;23.15;80.87;102050.75;10312389;28;20026;-71
2022/06/10 04:41:26;;;;;;;0.10;0.10;;;;;;;23.70;78.23;102057.47;10306535;28;20025;-70
2022/06/10 04:46:39;;;;;;;0.00;0.00;;;;;;;24.23;74.53;102055.47;10297959;28;20090;-71
2022/06/10 04:51:39;;;;;;;0.10;0.10;;;;;;;24.81;69.48;102055.22;10302489;28;20066;-71
2022/06/10 04:56:40;;;;;;;0.00;0.00;;;;;;;25.34;68.77;102057.44;10303884;28;20505;-71
2022/06/10 05:01:40;;;;;;;0.00;0.00;;;;;;;25.66;68.94;102058.09;10304994;28;20480;-71
2022/06/10 05:06:41;;;;;;;0.10;0.10;;;;;;;26.24;64.97;102064.00;10308331;28;20027;-70
2022/06/10 05:11:41;;;;;;;0.00;0.00;;;;;;;26.56;63.59;102064.59;10307998;28;20333;-69
2022/06/10 05:16:41;;;;;;;0.10;0.10;;;;;;;26.94;62.36;102072.31;10304445;28;20026;-70
2022/06/10 05:21:42;;;;;;;0.10;0.10;;;;;;;27.59;61.36;102073.16;10309026;28;20147;-71
2022/06/10 05:26:42;;;;;;;0.10;0.10;;;;;;;28.10;56.55;102071.41;10317304;28;20025;-71
2022/06/10 05:31:42;;;;;;;0.10;0.10;;;;;;;27.98;50.91;102075.06;10314452;28;20027;-71
2022/06/10 05:36:42;;;;;;;0.10;0.10;;;;;;;27.81;52.51;102079.66;10311357;28;20030;-71
2022/06/10 05:47:05;;;;;;;0.10;0.10;;;;;;;28.14;51.61;102076.16;10312251;28;20034;-71
2022/06/10 05:52:10;;;;;;;0.10;0.10;;;;;;;28.39;47.49;102078.53;10326822;28;20076;-71
2022/06/10 05:57:11;;;;;;;0.10;0.10;;;;;;;28.54;49.37;102079.91;10309718;28;20022;-71
2022/06/10 06:02:13;;;;;;;0.10;0.10;;;;;;;28.77;46.15;102084.34;10319205;28;20030;-71
2022/06/10 06:07:20;;;;;;;0.10;0.10;;;;;;;28.86;46.45;102083.69;10311268;28;20113;-72
2022/06/10 06:12:21;;;;;;;0.10;0.10;;;;;;;28.82;44.12;102088.00;10313701;28;20014;-72
2022/06/10 06:17:22;;;;;;;0.10;0.10;;;;;;;28.41;45.01;102084.59;10312845;28;20121;-71
2022/06/10 06:22:22;;;;;;;;;;;;;;;28.42;48.00;102091.75;10314963;28;20261;-72
2022/06/10 06:27:22;;;;;;;0.10;0.10;;;;;;;28.44;45.35;102095.06;10322094;28;19914;-72
2022/06/10 06:32:23;;;;;;;;;;;;;;;28.29;45.23;102092.03;10313356;28;20030;-72
2022/06/10 06:37:23;;;;;;;0.10;0.10;;;;;;;28.63;48.38;102086.63;10322749;28;20280;-72
2022/06/10 06:42:24;;;;;;;;;;;;;;;28.69;44.90;102093.84;10320206;28;20020;-72
2022/06/10 06:47:24;;;;;;;0.10;0.10;;;;;;;28.70;45.56;102100.13;10311986;28;19914;-72
2022/06/10 06:52:24;;;;;;;;;;;;;;;28.95;44.86;102103.28;10309995;28;20027;-72
2022/06/10 06:57:25;;;;;;;0.10;0.10;;;;;;;28.74;45.10;102098.53;10313261;28;19940;-72
2022/06/10 07:02:26;;;;;;;0.10;0.10;;;;;;;28.64;44.39;102104.72;10306851;28;20073;-72
2022/06/10 07:07:26;;;;;;;0.10;0.10;;;;;;;28.37;43.05;102097.13;10306985;28;20470;-71
2022/06/10 07:12:27;;;;;;;;;;;;;;;28.34;46.33;102094.03;10303743;28;20117;-72
2022/06/10 07:17:27;;;;;;;0.10;0.10;;;;;;;28.38;44.99;102107.00;10300393;28;20005;-72
2022/06/10 07:22:27;;;;;;;;;;;;;;;28.48;45.04;102103.63;10319838;28;20019;-72
2022/06/10 07:27:28;;;;;;;0.10;0.10;;;;;;;28.65;44.75;102104.47;10306730;28;19917;-72
2022/06/10 07:32:28;;;;;;;;;;;;;;;28.72;44.74;102103.47;10317551;28;20034;-72
2022/06/10 07:37:28;;;;;;;0.10;0.10;;;;;;;28.61;43.99;102103.28;10302289;28;20313;-72
2022/06/10 07:42:29;;;;;;;0.10;0.10;;;;;;;28.52;44.45;102102.06;10306828;28;20033;-72
2022/06/10 07:47:29;;;;;;;0.10;0.10;;;;;;;28.57;43.43;102095.84;10312226;28;20030;-71
2022/06/10 07:52:29;;;;;;;0.10;0.10;;;;;;;28.66;45.08;102097.06;10329914;28;20018;-72
2022/06/10 07:57:30;;;;;;;0.10;0.10;;;;;;;28.70;42.70;102087.25;10307941;28;20061;-72
2022/06/10 08:02:30;;;;;;;0.07;0.07;;;;;;;28.13;42.45;102085.47;10312612;28;20031;-72
2022/06/10 08:07:30;;;;;;;0.10;0.10;;;;;;;27.85;46.57;102085.47;10303173;28;20488;-71
2022/06/10 08:12:31;;;;;;;0.10;0.10;;;;;;;28.03;45.13;102090.75;10304286;28;20114;-71
2022/06/10 08:17:31;;;;;;;0.07;0.07;;;;;;;28.14;44.72;102089.03;10305550;28;20026;-72
2022/06/10 08:22:32;;;;;;;0.10;0.10;;;;;;;28.28;45.39;102087.66;10309786;28;20019;-72
2022/06/10 08:27:33;;;;;;;0.00;0.00;;;;;;;28.11;46.66;102086.78;10315088;28;20032;-72
2022/06/10 08:32:33;;;;;;;0.00;0.00;;;;;;;28.10;45.66;102076.91;10305554;28;20029;-72
2022/06/10 08:37:33;;;;;;;0.10;0.10;;;;;;;28.08;43.94;102082.63;10316181;28;20495;-72
2022/06/10 08:42:39;;;;;;;0.10;0.10;;;;;;;27.94;47.37;102084.84;10311756;28;20470;-72
2022/06/10 08:48:03;;;;;;;0.10;0.10;;;;;;;27.74;44.81;102073.47;10344713;23;20046;-72
2022/06/10 08:53:09;;;;;;;0.10;0.10;;;;;;;27.80;46.45;102068.94;10359446;28;20026;-72
2022/06/10 08:58:32;;;;;;;0.10;0.10;;;;;;;27.42;46.22;102079.38;10340864;28;20400;-72
2022/06/10 09:03:39;;;;;;;0.00;0.00;;;;;;;27.10;48.27;102074.31;10366441;28;20022;-72
2022/06/10 09:08:50;;;;;;;0.10;0.10;;;;;;;26.63;48.55;102073.50;10366821;28;20030;-72
2022/06/10 09:13:57;;;;;;;0.10;0.10;;;;;;;26.74;49.36;102067.19;10358404;28;20381;-72
2022/06/10 09:19:07;;;;;;;0.00;0.00;;;;;;;26.46;48.95;102073.31;10347300;28;20393;-72
2022/06/10 09:24:16;;;;;;;0.10;0.10;;;;;;;26.68;49.34;102064.59;10371365;28;20038;-72
2022/06/10 09:29:16;;;;;;;0.10;0.10;;;;;;;26.82;51.51;102061.38;10368877;28;20025;-72
2022/06/10 09:34:51;;;;;;;0.10;0.10;;;;;;;27.21;49.51;102049.94;10355089;28;20101;-72
2022/06/10 09:45:48;;;;;;;0.00;0.00;;;;;;;26.37;49.10;102050.97;10335928;28;20042;-72
2022/06/10 09:51:15;;;;;;;0.00;0.00;;;;;;;26.60;49.30;102055.66;10363330;28;20054;-72
2022/06/10 09:56:28;;;;;;;0.00;0.00;;;;;;;26.66;50.97;102055.78;10331110;28;20080;-72
2022/06/10 10:01:28;;;;;;;0.00;0.00;;;;;;;26.78;47.60;102054.72;10333624;28;20062;-72
2022/06/10 10:06:34;;;;;;;0.10;0.10;;;;;;;26.96;48.00;102059.22;10331417;28;20454;-72
2022/06/10 10:12:13;;;;;;;0.10;0.10;;;;;;;27.04;49.74;102056.13;10345896;28;20022;-72
2022/06/10 10:17:31;;;;;;;0.00;0.00;;;;;;;26.41;52.12;102060.38;10319400;28;20461;-72
2022/06/10 10:22:50;;;;;;;0.10;0.10;;;;;;;26.05;52.86;102052.31;10368461;28;20038;-73
2022/06/10 10:27:53;;;;;;;0.00;0.00;;;;;;;26.24;53.87;102056.66;10383911;28;20100;-73
2022/06/10 10:32:58;;;;;;;0.00;0.00;;;;;;;26.61;50.39;102045.56;10367980;28;20308;-72
2022/06/10 10:38:02;;;;;;;0.00;0.00;;;;;;;26.88;52.78;102040.47;10339809;28;20108;-72
2022/06/10 10:43:10;;;;;;;0.00;0.00;;;;;;;26.38;48.20;102046.34;10351915;28;20069;-72
2022/06/10 10:48:19;;;;;;;0.00;0.00;;;;;;;25.94;52.46;102026.66;10332350;28;20126;-73
2022/06/10 10:53:27;;;;;;;0.00;0.00;;;;;;;26.45;50.24;102040.78;10369674;28;20013;-72
2022/06/10 10:58:31;;;;;;;0.00;0.00;;;;;;;26.18;48.56;102039.31;10370821;28;20057;-72
2022/06/10 11:03:45;;;;;;;0.00;0.00;;;;;;;25.48;51.17;102041.72;10371770;28;20140;-72
2022/06/10 11:08:55;;;;;;;0.00;0.00;;;;;;;25.17;53.55;102043.56;10365127;28;20069;-72
2022/06/10 11:14:02;;;;;;;0.10;0.10;;;;;;;25.64;52.93;102051.19;10356723;28;20065;-73
2022/06/10 11:19:16;;;;;;;0.00;0.00;;;;;;;25.45;50.81;102037.59;10339608;28;20022;-72
2022/06/10 11:24:18;;;;;;;0.00;0.00;;;;;;;25.21;50.46;102041.22;10367203;28;20045;-72
2022/06/10 11:29:19;;;;;;;0.00;0.00;;;;;;;25.04;51.81;102032.78;10342040;28;20486;-72
2022/06/10 11:34:27;;;;;;;0.00;0.00;;;;;;;25.08;55.02;102031.28;10327958;28;20101;-73
2022/06/10 11:39:33;;;;;;;0.00;0.00;;;;;;;25.22;50.83;102032.81;10326425;28;20026;-72
2022/06/10 11:44:49;;;;;;;0.00;0.00;;;;;;;25.39;53.71;102029.47;10344404;28;20168;-72
2022/06/10 11:50:02;;;;;;;0.00;0.00;;;;;;;25.59;50.82;102029.22;10385719;28;20022;-73
2022/06/10 11:55:09;;;;;;;0.00;0.00;;;;;;;25.27;51.09;102030.22;10369519;28;20033;-72
2022/06/10 12:00:33;;;;;;;0.00;0.00;;;;;;;25.41;53.90;102016.44;10363300;28;20559;-72
2022/06/10 12:05:47;;;;;;;0.00;0.00;;;;;;;25.54;54.09;102019.00;10369038;28;20084;-72
2022/06/10 12:11:21;;;;;;;0.10;0.10;;;;;;;25.50;55.88;102018.63;10369849;28;20050;-73
2022/06/10 12:16:25;;;;;;;0.00;0.00;;;;;;;25.36;57.88;102017.13;10365530;28;20053;-73
2022/06/10 12:21:28;;;;;;;0.00;0.00;;;;;;;25.46;58.41;102025.59;10368733;28;20030;-72
2022/06/10 12:26:42;;;;;;;0.00;0.00;;;;;;;25.71;58.19;102021.91;10368322;28;20025;-72
2022/06/10 12:31:48;;;;;;;0.00;0.00;;;;;;;25.73;58.94;102020.63;10367706;28;20025;-73
2022/06/10 12:36:59;;;;;;;0.00;0.00;;;;;;;25.43;59.07;102022.50;10351632;28;20028;-72
2022/06/10 12:42:17;;;;;;;0.10;0.10;;;;;;;25.18;59.56;102019.88;10368430;28;20481;-72
2022/06/10 12:47:36;;;;;;;0.00;0.00;;;;;;;25.21;63.85;102028.41;10359899;28;20025;-73
2022/06/10 12:53:03;;;;;;;0.10;0.10;;;;;;;25.38;60.06;102019.63;10371493;28;20028;-72
2022/06/10 12:58:04;;;;;;;0.00;0.00;;;;;;;24.99;60.36;102028.03;10376426;28;20550;-72
2022/06/10 13:03:13;;;;;;;0.00;0.00;;;;;;;24.78;59.58;102022.97;10376341;28;20022;-72
2022/06/10 13:08:47;;;;;;;0.10;0.10;;;;;;;24.20;61.12;102024.09;10376139;28;20033;-72
2022/06/10 13:14:09;;;;;;;0.00;0.00;;;;;;;23.40;64.05;102024.53;10368951;28;20038;-72
2022/06/10 13:19:27;;;;;;;0.00;0.00;;;;;;;22.72;68.77;102029.47;10369544;28;20032;-72
2022/06/10 13:24:27;;;;;;;0.05;0.05;;;;;;;22.36;71.27;102028.03;10376332;28;20033;-72
2022/06/10 13:29:29;;;;;;;0.00;0.00;;;;;;;22.06;72.04;102030.28;10374207;28;20369;-72
2022/06/10 13:34:33;;;;;;;0.00;0.00;;;;;;;22.07;74.93;102040.06;10374899;28;20033;-72
2022/06/10 13:39:37;;;;;;;0.10;0.10;;;;;;;22.20;72.83;102037.44;10375834;28;20026;-72
2022/06/10 13:44:43;;;;;;;0.10;0.10;;;;;;;22.41;72.87;102039.09;10374221;28;20034;-72
2022/06/10 13:50:11;;;;;;;0.10;0.10;;;;;;;22.49;73.50;102038.06;10388046;28;20036;-72
2022/06/10 13:55:20;;;;;;;0.00;0.00;;;;;;;22.66;74.51;102041.16;10414841;28;20069;-72
2022/06/10 14:00:23;;;;;;;0.00;0.00;;;;;;;22.70;74.46;102050.59;10415245;28;20370;-72
2022/06/10 14:05:26;;;;;;;0.10;0.10;;;;;;;22.86;71.32;102044.69;10391447;28;20037;-72
2022/06/10 14:10:43;;;;;;;0.00;0.00;;;;;;;22.96;71.48;102050.59;10367995;28;20053;-72
2022/06/10 14:15:52;;;;;;;0.00;0.00;;;;;;;23.27;72.53;102043.59;10370112;28;20250;-72
2022/06/10 14:20:54;;;;;;;0.10;0.10;;;;;;;23.45;70.41;102049.19;10371250;28;20108;-72
2022/06/10 14:26:10;;;;;;;0.00;0.00;;;;;;;23.48;71.30;102042.50;10371679;28;20148;-72
2022/06/10 14:31:30;;;;;;;0.05;0.05;;;;;;;23.18;72.21;102048.41;10372979;28;20104;-72
2022/06/10 14:36:32;;;;;;;0.00;0.00;;;;;;;23.56;76.35;102060.44;10371804;28;20026;-72
2022/06/10 14:41:33;;;;;;;0.00;0.00;;;;;;;24.03;70.91;102051.03;10376379;28;20544;-72
2022/06/10 14:46:34;;;;;;;0.10;0.10;;;;;;;23.61;68.72;102055.19;10385647;23;20379;-75
2022/06/10 14:51:40;;;;;;;0.00;0.00;;;;;;;22.96;71.46;102058.72;10372475;28;20104;-75
2022/06/10 14:56:42;;;;;;;0.10;0.10;;;;;;;22.82;73.68;102059.75;10371759;28;20026;-74
2022/06/10 15:01:43;;;;;;;0.00;0.00;;;;;;;23.07;75.11;102057.25;10370734;28;20029;-74
2022/06/10 15:06:47;;;;;;;0.00;0.00;;;;;;;23.00;73.31;102057.25;10370639;28;20024;-75
2022/06/10 15:11:48;;;;;;;0.00;0.00;;;;;;;22.91;74.31;102057.66;10371207;28;20026;-75
2022/06/10 15:16:49;;;;;;;0.00;0.00;;;;;;;23.03;72.88;102056.81;10370751;28;20029;-74
2022/06/10 15:21:51;;;;;;;0.00;0.00;;;;;;;23.42;72.45;102051.50;10371050;28;20037;-74
2022/06/10 15:26:54;;;;;;;0.00;0.00;;;;;;;23.63;74.01;102053.09;10369266;28;20073;-74
2022/06/10 15:31:56;;;;;;;0.10;0.10;;;;;;;23.71;71.75;102047.44;10371013;28;20045;-75
2022/06/10 15:42:16;;;;;;;0.00;0.00;;;;;;;23.07;71.98;102034.66;10370261;28;20030;-75
2022/06/10 15:47:17;;;;;;;0.00;0.00;;;;;;;23.04;73.87;102031.34;10369702;28;20419;-75
2022/06/10 15:52:24;;;;;;;0.10;0.10;;;;;;;23.24;74.54;102030.44;10370227;28;20022;-74
2022/06/10 15:57:30;;;;;;;0.10;0.10;;;;;;;23.41;71.63;102030.78;10369208;28;20484;-74
2022/06/10 16:02:31;;;;;;;0.00;0.00;;;;;;;23.23;72.76;102017.91;10370351;28;20384;-74
2022/06/10 16:07:31;;;;;;;0.10;0.10;;;;;;;22.93;71.52;102026.53;10363582;28;20029;-75
2022/06/10 16:18:45;;;;;;;0.00;0.00;;;;;;;22.43;75.01;102019.88;10294971;28;20072;-74
2022/06/10 16:23:48;;;;;;;0.00;0.00;;;;;;;22.29;76.66;102010.91;10350967;28;20054;-75
2022/06/10 16:28:52;;;;;;;0.00;0.00;;;;;;;22.57;75.60;102016.97;10368402;28;20032;-74
2022/06/10 16:33:53;;;;;;;0.00;0.00;;;;;;;22.89;74.42;102006.25;10366082;28;20018;-74
2022/06/10 16:38:54;;;;;;;0.10;0.10;;;;;;;22.66;74.30;102004.00;10363161;28;20397;-74
2022/06/10 16:43:57;;;;;;;0.00;0.00;;;;;;;22.54;73.95;102000.25;10368106;28;20037;-75
2022/06/10 16:48:57;;;;;;;;;;;;;;;22.46;75.05;102001.31;10368889;28;20489;-74
2022/06/10 16:53:57;;;;;;;0.00;0.00;;;;;;;;;;10367764;28;19948;-74
2022/06/10 16:58:58;;;;;;;0.10;0.10;;;;;;;22.37;76.85;101999.84;10368488;28;20511;-74
2022/06/10 17:03:58;;;;;;;0.00;0.00;;;;;;;22.44;78.30;101995.25;10366287;28;20033;-74
2022/06/10 17:08:58;;;;;;;0.10;0.10;;;;;;;22.36;77.20;101990.84;10362818;28;20044;-74
2022/06/10 17:14:01;;;;;;;0.10;0.10;;;;;;;22.21;77.37;102001.09;10367354;28;20023;-74
2022/06/10 17:19:02;;;;;;;;;;;;;;;22.00;80.14;101993.94;10368746;28;20480;-74
2022/06/10 17:24:03;;;;;;;0.10;0.10;;;;;;;21.84;81.54;101995.16;10367087;28;19920;-75
2022/06/10 17:29:04;;;;;;;0.10;0.10;;;;;;;21.78;84.38;101995.16;10367751;28;20385;-74
2022/06/10 17:34:04;;;;;;;0.00;0.00;;;;;;;21.63;81.60;101988.03;10367939;28;20413;-74
2022/06/10 17:39:05;;;;;;;0.00;0.00;;;;;;;21.38;82.67;101986.88;10370692;28;20029;-74
2022/06/10 17:44:15;;;;;;;0.00;0.00;;;;;;;21.10;86.17;101978.84;10374821;28;20030;-75
2022/06/10 17:49:32;;;;;;;0.00;0.00;;;;;;;20.88;87.18;101994.31;10375046;28;20026;-74
2022/06/10 17:54:35;;;;;;;0.00;0.00;;;;;;;20.72;92.26;101992.78;10374360;28;20018;-74
2022/06/10 17:59:37;;;;;;;0.08;0.08;;;;;;;20.55;95.05;101998.47;10374841;28;20121;-75
2022/06/10 18:04:38;;;;;;;0.00;0.00;;;;;;;20.41;98.85;101996.69;10373799;28;20481;-75
2022/06/10 18:09:38;;;;;;;0.10;0.10;;;;;;;20.25;99.01;101999.69;10369303;28;20021;-75
2022/06/10 18:14:53;;;;;;;0.00;0.00;;;;;;;20.03;99.62;101986.16;10373336;28;20030;-74
2022/06/10 18:19:54;;;;;;;0.10;0.10;;;;;;;19.89;98.18;101998.69;10373836;28;20551;-75
2022/06/10 18:24:54;;;;;;;0.00;0.00;;;;;;;19.77;98.00;101994.81;10373014;28;20111;-74
2022/06/10 18:29:58;;;;;;;0.00;0.00;;;;;;;19.65;98.29;101986.38;10373485;28;20097;-74
2022/06/10 18:35:16;;;;;;;0.00;0.00;;;;;;;19.59;99.35;101987.13;10369995;28;20428;-74
2022/06/10 18:40:21;;;;;;;0.10;0.10;;;;;;;19.54;100.00;101984.16;10367817;28;20041;-74
2022/06/10 18:45:30;;;;;;;0.00;0.00;;;;;;;19.51;100.00;101991.81;10370952;28;20129;-74
2022/06/10 18:50:33;;;;;;;0.10;0.10;;;;;;;19.43;100.00;101982.78;10370710;28;20032;-74
2022/06/10 18:55:34;;;;;;;0.00;0.00;;;;;;;19.38;100.00;101987.09;10371883;28;20524;-74
2022/06/10 19:00:39;;;;;;;0.10;0.10;;;;;;;19.35;100.00;101980.19;10372074;28;20373;-75
2022/06/10 19:05:39;;;;;;;0.00;0.00;;;;;;;19.30;100.00;101981.78;10370431;28;20092;-74
2022/06/10 19:10:42;;;;;;;0.00;0.00;;;;;;;19.22;100.00;101983.53;10372148;28;20037;-74
2022/06/10 19:15:50;;;;;;;0.00;0.00;;;;;;;19.16;100.00;101984.31;10369915;28;20143;-74
2022/06/10 19:20:51;;;;;;;0.00;0.00;;;;;;;19.12;100.00;101985.72;10371418;28;20473;-74
2022/06/10 19:25:55;;;;;;;0.00;0.00;;;;;;;19.09;100.00;102002.28;10370725;28;20036;-74
2022/06/10 19:30:58;;;;;;;0.00;0.00;;;;;;;19.03;100.00;102023.81;10371225;28;20046;-74
2022/06/10 19:36:03;;;;;;;0.10;0.10;;;;;;;18.97;100.00;102028.09;10370292;28;20026;-74
2022/06/10 19:41:04;;;;;;;0.10;0.10;;;;;;;18.85;100.00;102022.31;10385441;28;20039;-74
2022/06/10 19:46:05;;;;;;;0.00;0.00;;;;;;;18.73;100.00;102018.34;10369815;28;20105;-74
2022/06/10 19:51:16;;;;;;;0.10;0.10;;;;;;;18.66;100.00;102020.94;10370620;28;20543;-74
2022/06/10 19:56:21;;;;;;;0.10;0.10;;;;;;;18.61;100.00;102025.22;10369298;28;20042;-74
2022/06/10 20:01:21;;;;;;;0.08;0.08;;;;;;;18.55;100.00;102024.06;10369031;28;20026;-74
2022/06/10 20:06:24;;;;;;;0.10;0.10;;;;;;;18.50;100.00;102027.34;10368988;28;20113;-74
2022/06/10 20:11:25;;;;;;;0.10;0.10;;;;;;;18.45;100.00;102027.03;10369359;28;20033;-74
2022/06/10 20:16:28;;;;;;;0.03;0.03;;;;;;;18.40;100.00;102024.03;10368901;28;20069;-74
2022/06/10 20:21:30;;;;;;;0.03;0.03;;;;;;;18.36;100.00;102021.91;10369443;28;20060;-74
2022/06/10 20:26:36;;;;;;;0.10;0.10;;;;;;;18.29;100.00;102022.59;10368583;28;20391;-74
2022/06/10 20:31:51;;;;;;;0.10;0.10;;;;;;;18.23;100.00;102020.63;10369239;28;20551;-74
2022/06/10 20:36:52;;;;;;;0.10;0.10;;;;;;;18.10;100.00;102036.59;10363315;28;20026;-75
2022/06/10 20:41:53;;;;;;;0.10;0.10;;;;;;;17.95;100.00;102030.28;10368653;28;20026;-75
2022/06/10 20:46:59;;;;;;;0.10;0.10;;;;;;;17.85;100.00;102031.34;10379941;22;20069;-73
2022/06/10 20:52:01;;;;;;;0.10;0.10;;;;;;;17.75;100.00;102032.56;10365833;28;20022;-71
2022/06/10 20:57:02;;;;;;;0.10;0.10;;;;;;;17.50;100.00;102021.91;10365343;28;20029;-71
2022/06/10 21:02:03;;;;;;;0.10;0.10;;;;;;;17.28;100.00;102025.38;10365775;28;20035;-72
2022/06/10 21:07:28;;;;;;;0.10;0.10;;;;;;;17.12;100.00;102023.59;10364036;28;20030;-73
2022/06/10 21:12:29;;;;;;;0.00;0.00;;;;;;;16.98;100.00;102017.06;10367486;28;20105;-73
2022/06/10 21:17:39;;;;;;;0.10;0.10;;;;;;;16.84;100.00;102007.00;10374046;28;20465;-72
2022/06/10 21:22:39;;;;;;;0.10;0.10;;;;;;;16.70;100.00;102014.75;10373557;28;20453;-70
2022/06/10 21:27:40;;;;;;;0.10;0.10;;;;;;;16.54;100.00;102012.06;10372392;28;20028;-72
2022/06/10 21:32:40;;;;;;;0.10;0.10;;;;;;;16.34;100.00;102003.50;10373117;28;20050;-72
2022/06/10 21:37:41;;;;;;;0.10;0.10;;;;;;;16.18;100.00;102000.81;10372662;28;20203;-72
2022/06/10 21:48:04;;;;;;;0.10;0.10;;;;;;;15.95;100.00;102006.84;10371915;28;20042;-73
2022/06/10 21:53:23;;;;;;;0.10;0.10;;;;;;;15.88;100.00;102007.66;10372051;28;20473;-73
2022/06/10 21:58:28;;;;;;;0.10;0.10;;;;;;;15.77;100.00;101996.25;10371400;28;20026;-70
2022/06/10 22:03:32;;;;;;;0.10;0.10;;;;;;;15.68;100.00;101996.38;10405512;28;20488;-73
2022/06/10 22:08:32;;;;;;;0.10;0.10;;;;;;;15.67;100.00;102000.03;10410710;28;20052;-72
2022/06/10 22:13:32;;;;;;;0.10;0.10;;;;;;;15.72;100.00;102009.31;10412068;28;20029;-72
2022/06/10 22:18:34;;;;;;;0.00;0.00;;;;;;;15.83;100.00;102017.06;10411900;28;20500;-73
2022/06/10 22:23:34;;;;;;;0.10;0.10;;;;;;;15.92;100.00;102011.72;10412111;28;20033;-72
2022/06/10 22:28:36;;;;;;;0.10;0.10;;;;;;;16.02;100.00;102015.06;10399332;28;20091;-73
2022/06/10 22:33:41;;;;;;;0.10;0.10;;;;;;;16.12;100.00;102026.53;10369045;28;20025;-73
2022/06/10 22:38:48;;;;;;;0.10;0.10;;;;;;;16.21;100.00;102020.13;10371082;28;20030;-73
2022/06/10 22:43:48;;;;;;;0.10;0.10;;;;;;;16.29;100.00;102013.94;10369866;28;20088;-72
2022/06/10 22:48:49;;;;;;;0.10;0.10;;;;;;;16.34;100.00;102016.09;10369714;28;20177;-73
2022/06/10 22:53:52;;;;;;;0.10;0.10;;;;;;;16.34;100.00;102008.88;10368177;28;20026;-73
2022/06/10 22:58:52;;;;;;;0.03;0.03;;;;;;;16.33;100.00;102009.06;10367860;28;20025;-73
2022/06/10 23:03:58;;;;;;;0.10;0.10;;;;;;;16.28;100.00;102010.38;10369836;28;20025;-73
2022/06/10 23:14:28;;;;;;;0.10;0.10;;;;;;;16.25;100.00;102009.88;10369235;28;20077;-71
2022/06/10 23:19:33;;;;;;;0.10;0.10;;;;;;;16.32;100.00;101996.59;10368986;28;20026;-71
2022/06/10 23:24:35;;;;;;;0.08;0.08;;;;;;;16.35;100.00;102004.34;10368667;28;20026;-73
2022/06/10 23:29:35;;;;;;;0.10;0.10;;;;;;;16.37;100.00;101995.09;10349441;28;20022;-73
2022/06/10 23:34:39;;;;;;;0.10;0.10;;;;;;;16.29;100.00;101995.94;10327504;28;20363;-72
2022/06/10 23:39:39;;;;;;;0.10;0.10;;;;;;;16.23;100.00;101995.75;10327451;28;20382;-73
2022/06/10 23:44:41;;;;;;;0.10;0.10;;;;;;;16.20;100.00;101988.91;10327618;28;20038;-73
